Time;durP1;ratioP1;P1;durP2;ratioP2;P2;SDS_P1;SDS_P2;PMS_P1;PMS_P2;Temp;Humidity;BMP_temperature;BMP_pressure;BME280_temperature;BME280_humidity;BME280_pressure;Samples;Min_cycle;Max_cycle;Signal;HPM_P1;HPM_P2
2023/01/19 01:41:08;;;;;;;19.90;10.80;;;1.90;99.90;;;;;;4493522;23;20283;-93
2023/01/19 01:43:13;;;;;;;19.13;10.97;;;1.90;99.90;;;;;;4054238;29;20321;-94
2023/01/19 01:45:33;;;;;;;21.63;10.30;;;1.90;99.90;;;;;;4053859;29;20252;-92
2023/01/19 01:47:40;;;;;;;18.07;10.90;;;1.90;99.90;;;;;;4053576;29;20237;-93
2023/01/19 01:49:42;;;;;;;21.87;10.80;;;2.00;99.90;;;;;;4053799;29;20558;-93
2023/01/19 01:51:50;;;;;;;21.07;10.80;;;2.00;99.90;;;;;;4053534;29;20217;-94
2023/01/19 01:54:17;;;;;;;23.80;11.77;;;2.10;99.90;;;;;;4053519;29;20169;-93
2023/01/19 01:56:23;;;;;;;18.23;10.93;;;2.00;99.90;;;;;;4053579;29;20670;-91
2023/01/19 01:58:24;;;;;;;21.53;10.70;;;2.00;99.90;;;;;;4053145;29;20261;-93
2023/01/19 02:00:26;;;;;;;21.67;11.03;;;2.10;99.90;;;;;;4053670;29;20173;-94
2023/01/19 02:05:02;;;;;;;24.23;11.93;;;2.10;99.90;;;;;;4068810;29;20609;-92
2023/01/19 02:14:05;;;;;;;25.80;11.70;;;2.30;99.90;;;;;;4069045;29;20260;-94
2023/01/19 02:16:07;;;;;;;23.97;11.77;;;2.30;99.90;;;;;;4053548;29;20569;-93
2023/01/19 02:18:09;;;;;;;23.57;12.60;;;2.40;99.90;;;;;;4068615;29;20196;-92
2023/01/19 02:20:11;;;;;;;24.27;12.00;;;2.40;99.90;;;;;;4068877;29;20176;-93
2023/01/19 02:22:18;;;;;;;24.17;11.63;;;2.50;99.90;;;;;;4053439;29;20172;-92
2023/01/19 02:24:20;;;;;;;23.40;11.80;;;2.40;99.90;;;;;;4053168;29;20188;-93
2023/01/19 02:26:28;;;;;;;22.17;11.67;;;2.40;99.90;;;;;;4068475;29;20176;-93
2023/01/19 02:28:30;;;;;;;23.60;11.67;;;2.30;99.90;;;;;;4053236;29;20220;-93
2023/01/19 02:30:32;;;;;;;22.10;10.97;;;2.30;99.90;;;;;;4052699;29;20219;-93
2023/01/19 02:32:32;;;;;;;20.47;10.37;;;2.30;99.90;;;;;;4052847;29;20177;-92
2023/01/19 02:34:34;;;;;;;24.83;12.30;;;2.20;99.90;;;;;;4068877;29;20272;-94
2023/01/19 02:37:05;;;;;;;28.00;11.63;;;2.20;99.90;;;;;;4068765;29;20180;-93
2023/01/19 02:39:08;;;;;;;23.93;11.67;;;2.00;99.90;;;;;;4068820;29;20212;-96
2023/01/19 02:41:12;;;;;;;28.67;11.83;;;2.00;99.90;;;;;;4052854;29;20188;-94
2023/01/19 02:43:15;;;;;;;23.63;10.47;;;2.00;99.90;;;;;;4053084;29;20180;-93
2023/01/19 02:45:19;;;;;;;24.57;11.47;;;1.90;99.90;;;;;;4052820;29;20173;-92
2023/01/19 02:47:23;;;;;;;23.07;11.53;;;1.90;99.90;;;;;;4052801;29;20293;-93
2023/01/19 02:49:27;;;;;;;19.87;10.93;;;2.00;99.90;;;;;;4052900;29;20623;-92
2023/01/19 02:51:28;;;;;;;26.70;11.87;;;2.10;99.90;;;;;;4068508;29;20696;-92
2023/01/19 02:53:37;;;;;;;23.80;11.13;;;2.10;99.90;;;;;;4068450;29;20176;-93
2023/01/19 02:55:49;;;;;;;21.93;11.43;;;2.00;99.90;;;;;;4052961;29;20663;-94
2023/01/19 02:58:19;;;;;;;21.80;10.77;;;2.10;99.90;;;;;;4052952;29;20192;-94
2023/01/19 03:00:44;;;;;;;25.00;12.00;;;2.00;99.90;;;;;;4052603;29;20180;-92
2023/01/19 03:03:20;;;;;;;22.47;10.80;;;2.10;99.90;;;;;;4052614;29;20181;-95
2023/01/19 03:05:29;;;;;;;24.07;10.90;;;2.10;99.90;;;;;;4052637;29;20188;-94
2023/01/19 03:07:55;;;;;;;21.27;10.67;;;2.10;99.90;;;;;;4052598;29;20204;-93
2023/01/19 03:10:00;;;;;;;20.50;11.17;;;2.20;99.90;;;;;;4052496;29;20196;-93
2023/01/19 03:12:22;;;;;;;20.10;11.07;;;2.20;99.90;;;;;;4052758;29;20180;-94
2023/01/19 03:14:26;;;;;;;25.23;10.97;;;2.30;99.90;;;;;;4052967;29;20220;-93
2023/01/19 03:16:36;;;;;;;29.03;11.23;;;2.00;99.90;;;;;;4052554;29;20177;-94
2023/01/19 03:18:39;;;;;;;18.20;10.47;;;2.10;99.90;;;;;;4052603;29;20233;-93
2023/01/19 03:20:42;;;;;;;27.80;11.73;;;2.10;99.90;;;;;;4052661;29;20181;-95
2023/01/19 03:22:46;;;;;;;24.20;10.77;;;2.10;99.90;;;;;;4055735;29;20184;-93
2023/01/19 03:24:49;;;;;;;26.37;11.40;;;2.20;99.90;;;;;;4055546;29;20177;-93
2023/01/19 03:26:59;;;;;;;23.50;11.87;;;2.20;99.90;;;;;;4055692;29;20199;-95
2023/01/19 03:29:02;;;;;;;25.23;11.27;;;2.20;99.90;;;;;;4055864;29;20207;-93
2023/01/19 03:31:13;;;;;;;24.30;11.23;;;2.20;99.90;;;;;;4055524;29;20275;-93
2023/01/19 03:33:21;;;;;;;24.97;11.73;;;2.40;99.90;;;;;;4055475;29;20185;-94
2023/01/19 03:35:25;;;;;;;20.57;11.17;;;2.30;99.90;;;;;;4055748;29;20717;-93
2023/01/19 03:37:29;;;;;;;25.57;11.53;;;2.50;99.90;;;;;;4071295;29;20665;-92
2023/01/19 03:39:30;;;;;;;22.50;11.47;;;2.60;99.90;;;;;;4055766;29;20297;-93
2023/01/19 03:41:33;;;;;;;24.57;12.53;;;2.60;99.90;;;;;;4070947;29;20248;-93
2023/01/19 03:43:38;;;;;;;21.87;11.87;;;2.50;99.90;;;;;;4055618;29;20177;-95
2023/01/19 03:45:40;;;;;;;21.80;10.43;;;2.50;99.90;;;;;;4055319;29;20180;-94
2023/01/19 03:47:43;;;;;;;24.20;11.20;;;2.50;99.90;;;;;;4055381;29;20247;-94
2023/01/19 03:49:46;;;;;;;21.87;11.13;;;2.50;99.90;;;;;;4071044;29;20184;-94
2023/01/19 03:51:47;;;;;;;23.53;11.37;;;2.60;99.90;;;;;;4055379;29;20688;-94
2023/01/19 03:53:48;;;;;;;25.73;10.83;;;2.40;99.90;;;;;;4055352;29;20169;-93
2023/01/19 03:55:50;;;;;;;20.30;11.00;;;2.40;99.90;;;;;;4055448;29;20185;-94
2023/01/19 03:57:51;;;;;;;20.87;11.20;;;2.40;99.90;;;;;;4055618;29;20728;-93
2023/01/19 03:59:52;;;;;;;25.33;11.23;;;2.50;99.90;;;;;;4070941;29;20262;-94
2023/01/19 04:01:53;;;;;;;19.63;10.67;;;2.40;99.90;;;;;;4070688;29;20176;-94
2023/01/19 04:03:54;;;;;;;24.17;10.37;;;2.30;99.90;;;;;;4055130;29;20173;-93
2023/01/19 04:05:55;;;;;;;23.83;11.03;;;2.20;99.90;;;;;;4055247;29;20170;-96
2023/01/19 04:07:56;;;;;;;25.00;9.97;;;2.10;99.90;;;;;;4070558;29;20211;-93
2023/01/19 04:10:00;;;;;;;23.07;10.93;;;2.20;99.90;;;;;;4054956;29;20237;-93
2023/01/19 04:12:00;;;;;;;23.37;11.87;;;2.30;99.90;;;;;;4055165;29;20220;-93
2023/01/19 04:14:01;;;;;;;31.07;11.10;;;2.40;99.90;;;;;;4054936;29;20241;-93
2023/01/19 04:16:05;;;;;;;24.43;10.83;;;2.40;99.90;;;;;;4054863;29;20308;-93
2023/01/19 04:18:06;;;;;;;25.37;11.43;;;2.40;99.90;;;;;;4055030;29;20295;-92
2023/01/19 04:20:07;;;;;;;23.17;10.27;;;2.50;99.90;;;;;;4054797;29;20224;-94
2023/01/19 04:22:09;;;;;;;23.47;10.83;;;2.50;99.90;;;;;;4055013;29;20233;-93
2023/01/19 04:24:10;;;;;;;24.70;11.27;;;2.50;99.90;;;;;;4054991;29;20184;-93
2023/01/19 04:26:11;;;;;;;24.50;11.50;;;2.60;99.90;;;;;;4054875;29;20169;-94
2023/01/19 04:28:12;;;;;;;22.87;11.30;;;2.80;99.90;;;;;;4070348;29;20200;-93
2023/01/19 04:30:13;;;;;;;30.20;11.80;;;2.70;99.90;;;;;;4070503;29;20178;-93
2023/01/19 04:32:14;;;;;;;19.87;11.00;;;2.70;99.90;;;;;;4070496;29;20184;-94
2023/01/19 04:34:14;;;;;;;32.37;11.23;;;2.70;99.90;;;;;;4069727;29;20324;-94
2023/01/19 04:36:15;;;;;;;25.23;11.40;;;2.70;99.90;;;;;;4054775;29;20209;-93
2023/01/19 04:38:16;;;;;;;25.87;11.33;;;2.50;99.90;;;;;;4054788;29;20259;-93
2023/01/19 04:40:17;;;;;;;26.33;11.87;;;2.50;99.90;;;;;;4054485;29;20177;-92
2023/01/19 04:42:18;;;;;;;25.67;12.43;;;2.60;99.90;;;;;;4054768;29;20173;-93
2023/01/19 04:44:19;;;;;;;35.07;12.50;;;2.60;99.90;;;;;;4054464;29;20701;-93
2023/01/19 04:46:19;;;;;;;30.37;12.27;;;2.50;99.90;;;;;;4070220;29;20179;-93
2023/01/19 04:48:20;;;;;;;24.70;12.17;;;2.20;99.90;;;;;;4054598;29;20207;-93
2023/01/19 04:50:21;;;;;;;26.77;11.03;;;2.20;99.90;;;;;;4054269;29;20208;-93
2023/01/19 04:52:22;;;;;;;28.93;11.93;;;2.20;99.90;;;;;;4069923;29;20219;-94
2023/01/19 04:54:22;;;;;;;27.73;12.10;;;2.10;99.90;;;;;;4054743;29;20755;-94
2023/01/19 04:56:25;;;;;;;25.00;11.97;;;2.00;99.90;;;;;;4054356;29;20177;-94
2023/01/19 04:58:26;;;;;;;28.47;12.20;;;2.20;99.90;;;;;;4069935;29;20180;-92
2023/01/19 05:00:27;;;;;;;27.37;11.87;;;2.20;99.90;;;;;;4070113;29;20181;-94
2023/01/19 05:02:28;;;;;;;30.63;12.53;;;2.20;99.90;;;;;;4054513;29;20177;-94
2023/01/19 05:04:28;;;;;;;28.50;12.13;;;2.20;99.90;;;;;;4054485;29;20176;-93
2023/01/19 05:06:29;;;;;;;31.20;11.63;;;2.20;99.90;;;;;;4054161;29;20215;-93
2023/01/19 05:08:30;;;;;;;27.07;12.40;;;2.20;99.90;;;;;;4054259;29;20204;-95
2023/01/19 05:10:31;;;;;;;30.07;12.97;;;2.30;99.90;;;;;;4069649;29;20216;-94
2023/01/19 05:12:32;;;;;;;24.23;12.07;;;2.30;99.90;;;;;;4054417;29;20586;-95
2023/01/19 05:14:33;;;;;;;27.33;12.63;;;2.30;99.90;;;;;;4069996;29;20191;-92
2023/01/19 05:16:34;;;;;;;28.63;13.13;;;2.20;99.90;;;;;;4054023;29;20276;-93
2023/01/19 05:18:35;;;;;;;30.20;13.53;;;2.20;99.90;;;;;;4069720;29;20173;-93
2023/01/19 05:20:36;;;;;;;31.80;13.50;;;2.20;99.90;;;;;;4054027;29;20173;-93
2023/01/19 05:22:38;;;;;;;23.67;11.70;;;2.20;99.90;;;;;;4053904;29;20188;-92
2023/01/19 05:24:38;;;;;;;31.00;13.60;;;2.10;99.90;;;;;;4054297;29;20204;-92
2023/01/19 05:26:39;;;;;;;30.73;13.60;;;1.90;99.90;;;;;;4054208;29;20184;-93
2023/01/19 05:28:40;;;;;;;29.00;13.50;;;1.90;99.90;;;;;;4054121;29;20168;-93
2023/01/19 05:30:41;;;;;;;26.40;13.17;;;1.90;99.90;;;;;;4053896;29;20303;-93
2023/01/19 05:32:42;;;;;;;38.17;13.27;;;2.10;99.90;;;;;;4069545;29;20188;-93
2023/01/19 05:34:43;;;;;;;30.13;13.40;;;2.00;99.90;;;;;;4053724;29;20215;-93
2023/01/19 05:36:44;;;;;;;30.57;13.47;;;2.00;99.90;;;;;;4053791;29;20185;-93
2023/01/19 05:38:45;;;;;;;28.40;14.10;;;2.00;99.90;;;;;;4053570;29;20274;-92
2023/01/19 05:40:46;;;;;;;30.10;13.90;;;1.90;99.90;;;;;;4053583;29;20189;-93
2023/01/19 05:42:46;;;;;;;35.87;13.70;;;1.90;99.90;;;;;;4053756;29;20184;-94
2023/01/19 05:44:47;;;;;;;27.27;13.57;;;2.00;99.90;;;;;;4053454;29;20177;-92
2023/01/19 05:46:48;;;;;;;32.13;13.07;;;2.00;99.90;;;;;;4053534;29;20192;-93
2023/01/19 05:48:51;;;;;;;31.77;13.40;;;2.00;99.90;;;;;;4069231;29;20638;-94
2023/01/19 05:50:57;;;;;;;30.07;13.33;;;2.00;99.90;;;;;;4053597;29;20217;-94
2023/01/19 05:52:58;;;;;;;28.70;13.43;;;1.90;99.90;;;;;;4053357;29;20205;-94
2023/01/19 05:54:59;;;;;;;28.43;13.43;;;1.70;99.90;;;;;;4053437;29;20300;-93
2023/01/19 05:57:01;;;;;;;30.50;13.53;;;1.70;99.90;;;;;;4053370;29;20200;-93
2023/01/19 05:59:02;;;;;;;37.47;13.67;;;1.70;99.90;;;;;;4053579;29;20223;-94
2023/01/19 06:01:05;;;;;;;28.13;13.00;;;1.50;99.90;;;;;;4053599;29;20211;-93
2023/01/19 06:03:05;;;;;;;29.43;12.83;;;1.50;99.90;;;;;;4053413;29;20210;-94
2023/01/19 06:05:06;;;;;;;28.93;13.47;;;1.60;99.90;;;;;;4053260;29;20181;-94
2023/01/19 06:07:07;;;;;;;30.33;13.33;;;1.70;99.90;;;;;;4053219;29;20197;-93
2023/01/19 06:09:08;;;;;;;31.17;13.40;;;1.80;99.90;;;;;;4069112;29;20172;-94
2023/01/19 06:11:09;;;;;;;32.50;13.57;;;1.80;99.90;;;;;;4068844;29;20720;-92
2023/01/19 06:13:10;;;;;;;27.40;14.10;;;1.80;99.90;;;;;;4068949;29;20263;-92
2023/01/19 06:15:11;;;;;;;31.87;14.23;;;1.70;99.90;;;;;;4053273;29;20185;-93
2023/01/19 06:17:12;;;;;;;33.50;13.73;;;1.70;99.90;;;;;;4068651;29;20196;-93
2023/01/19 06:19:13;;;;;;;27.43;13.30;;;1.70;99.90;;;;;;4053327;29;20708;-93
2023/01/19 06:21:14;;;;;;;28.87;13.97;;;1.70;99.90;;;;;;4053362;29;20181;-93
2023/01/19 06:23:15;;;;;;;33.93;13.23;;;1.80;99.90;;;;;;4069011;29;20267;-93
2023/01/19 06:25:16;;;;;;;29.57;13.63;;;1.80;99.90;;;;;;4052974;29;20229;-92
2023/01/19 06:27:17;;;;;;;28.90;13.20;;;1.80;99.90;;;;;;4053084;29;20749;-94
2023/01/19 06:29:17;;;;;;;36.77;13.40;;;1.80;99.90;;;;;;4053242;29;20204;-92
2023/01/19 06:31:18;;;;;;;27.63;13.20;;;1.90;99.90;;;;;;4053025;29;20774;-92
2023/01/19 06:33:19;;;;;;;34.20;12.73;;;2.00;99.90;;;;;;4053102;29;20248;-92
2023/01/19 06:35:20;;;;;;;25.77;12.93;;;1.90;99.90;;;;;;4068714;29;20184;-91
2023/01/19 06:37:21;;;;;;;30.13;12.70;;;1.80;99.90;;;;;;4052866;29;20677;-92
2023/01/19 06:39:22;;;;;;;33.83;13.97;;;1.80;99.90;;;;;;4052812;29;20185;-92
2023/01/19 06:41:22;;;;;;;30.47;13.67;;;1.70;99.90;;;;;;4052787;29;20192;-93
2023/01/19 06:43:24;;;;;;;34.13;13.43;;;1.70;99.90;;;;;;4053006;29;20208;-93
2023/01/19 06:45:25;;;;;;;33.03;13.27;;;1.80;99.90;;;;;;4052983;29;20661;-92
2023/01/19 06:47:26;;;;;;;33.97;13.40;;;1.80;99.90;;;;;;4052672;29;20200;-92
2023/01/19 06:49:26;;;;;;;36.37;13.80;;;1.70;99.90;;;;;;4052723;29;20180;-92
2023/01/19 06:51:27;;;;;;;39.70;14.07;;;1.70;99.90;;;;;;4052705;29;20563;-92
2023/01/19 06:53:29;;;;;;;33.20;13.93;;;1.70;99.90;;;;;;4068208;29;20183;-93
2023/01/19 06:55:29;;;;;;;29.50;12.87;;;1.80;99.90;;;;;;4052532;29;20181;-93
2023/01/19 06:57:32;;;;;;;31.83;13.47;;;1.80;99.90;;;;;;4052635;29;20370;-95
2023/01/19 06:59:35;;;;;;;33.13;13.40;;;1.80;99.90;;;;;;4053087;29;20168;-91
2023/01/19 07:01:36;;;;;;;32.83;12.90;;;1.70;99.90;;;;;;4053027;29;20185;-93
2023/01/19 07:03:37;;;;;;;32.90;13.37;;;1.90;99.90;;;;;;4052748;29;20220;-92
2023/01/19 07:05:38;;;;;;;28.50;13.80;;;1.80;99.90;;;;;;4068702;29;20187;-94
2023/01/19 07:07:41;;;;;;;32.77;13.90;;;1.90;99.90;;;;;;4068631;29;20200;-93
2023/01/19 07:09:42;;;;;;;32.67;14.37;;;1.90;99.90;;;;;;4084346;29;20179;-92
2023/01/19 07:11:43;;;;;;;46.73;14.13;;;2.00;99.90;;;;;;4052830;29;20335;-93
2023/01/19 07:13:50;;;;;;;32.13;14.13;;;2.10;99.90;;;;;;4068388;29;20173;-93
2023/01/19 07:15:50;;;;;;;33.73;13.47;;;2.10;99.90;;;;;;4068692;29;20190;-93
2023/01/19 07:17:51;;;;;;;31.63;14.00;;;2.00;99.90;;;;;;4052926;29;20265;-94
2023/01/19 07:19:52;;;;;;;31.07;14.20;;;1.90;99.90;;;;;;4052873;29;20582;-94
2023/01/19 07:21:53;;;;;;;32.80;13.93;;;1.90;99.90;;;;;;4052484;29;20179;-93
2023/01/19 07:23:54;;;;;;;31.23;13.43;;;1.80;99.90;;;;;;4052479;29;20188;-92
2023/01/19 07:25:59;;;;;;;32.33;14.93;;;1.90;99.90;;;;;;4068085;29;20217;-92
2023/01/19 07:28:00;;;;;;;31.37;14.00;;;2.00;99.90;;;;;;4052431;29;20331;-92
2023/01/19 07:30:03;;;;;;;39.23;15.07;;;2.00;99.90;;;;;;4052653;29;20273;-92
2023/01/19 07:32:04;;;;;;;35.53;14.97;;;2.10;99.90;;;;;;4052502;29;20640;-93
2023/01/19 07:34:05;;;;;;;36.33;14.30;;;2.20;99.90;;;;;;4052724;29;20243;-93
2023/01/19 07:36:07;;;;;;;33.47;15.53;;;2.20;99.90;;;;;;4052622;29;20642;-93
2023/01/19 07:38:08;;;;;;;31.80;14.90;;;2.10;99.90;;;;;;4052675;29;20254;-94
2023/01/19 07:40:10;;;;;;;43.13;15.53;;;1.90;99.90;;;;;;4052512;29;20782;-92
2023/01/19 07:42:11;;;;;;;37.23;15.13;;;1.70;99.90;;;;;;4052505;29;20177;-93
2023/01/19 07:44:12;;;;;;;40.70;15.27;;;1.90;99.90;;;;;;4052431;29;20173;-93
2023/01/19 07:46:12;;;;;;;34.70;15.17;;;1.70;99.90;;;;;;4052447;29;20276;-92
2023/01/19 07:48:13;;;;;;;35.77;17.77;;;1.50;99.90;;;;;;4052026;29;20201;-93
2023/01/19 07:50:16;;;;;;;41.30;16.33;;;1.50;99.90;;;;;;4052282;29;20183;-93
2023/01/19 07:52:17;;;;;;;43.60;17.40;;;1.50;99.90;;;;;;4052535;29;20188;-92
2023/01/19 07:54:19;;;;;;;44.57;16.77;;;1.40;99.90;;;;;;4067905;29;20176;-93
2023/01/19 07:56:21;;;;;;;35.53;17.07;;;1.40;99.90;;;;;;4067861;29;20184;-94
2023/01/19 07:58:23;;;;;;;41.33;18.07;;;1.40;99.90;;;;;;4052523;29;20631;-94
2023/01/19 08:00:24;;;;;;;49.20;19.43;;;1.50;99.90;;;;;;4052264;29;20272;-93
2023/01/19 08:02:24;;;;;;;52.10;18.80;;;1.60;99.90;;;;;;4052427;29;20181;-91
2023/01/19 08:04:26;;;;;;;46.63;20.23;;;1.80;99.90;;;;;;4052342;29;20180;-93
2023/01/19 08:06:32;;;;;;;52.20;19.93;;;1.80;99.90;;;;;;4068580;29;20264;-92
2023/01/19 08:08:33;;;;;;;50.27;19.67;;;1.90;99.90;;;;;;4054938;29;20185;-93
2023/01/19 08:10:34;;;;;;;50.00;21.37;;;1.80;99.90;;;;;;4070444;29;20261;-92
2023/01/19 08:12:35;;;;;;;47.50;23.43;;;1.90;99.90;;;;;;4055086;29;20687;-92
2023/01/19 08:14:35;;;;;;;59.50;21.97;;;2.00;99.90;;;;;;4055252;29;20225;-93
2023/01/19 08:16:36;;;;;;;59.87;21.37;;;1.90;99.90;;;;;;4070598;29;20173;-91
2023/01/19 08:18:37;;;;;;;50.07;21.13;;;2.00;99.90;;;;;;4070505;29;20271;-92
2023/01/19 08:20:38;;;;;;;48.03;20.00;;;2.00;99.90;;;;;;4055058;29;20173;-92
2023/01/19 08:22:38;;;;;;;51.93;20.70;;;2.10;99.90;;;;;;4070634;29;20646;-92
2023/01/19 08:24:39;;;;;;;51.60;20.53;;;2.10;99.90;;;;;;4054913;29;20188;-93
2023/01/19 08:26:40;;;;;;;48.63;21.07;;;2.20;99.90;;;;;;4054765;29;20193;-92
2023/01/19 08:28:40;;;;;;;53.03;20.70;;;2.10;99.90;;;;;;4054917;29;20189;-92
2023/01/19 08:30:45;;;;;;;57.77;22.83;;;2.10;99.90;;;;;;4070457;29;20204;-93
2023/01/19 08:32:45;;;;;;;53.80;20.40;;;2.00;99.90;;;;;;4054942;29;20574;-92
2023/01/19 08:34:46;;;;;;;58.50;21.90;;;2.20;99.90;;;;;;4054760;29;20181;-92
2023/01/19 08:36:47;;;;;;;46.10;18.93;;;2.10;99.90;;;;;;4054610;29;20193;-93
2023/01/19 08:38:48;;;;;;;52.00;20.67;;;2.00;99.90;;;;;;4054759;29;20184;-93
2023/01/19 08:40:50;;;;;;;47.27;19.67;;;2.10;99.90;;;;;;4054602;29;20258;-93
2023/01/19 08:42:51;;;;;;;53.60;20.20;;;2.00;99.90;;;;;;4054724;29;20177;-92
2023/01/19 08:44:52;;;;;;;56.17;21.73;;;2.10;99.90;;;;;;4054493;29;20177;-93
2023/01/19 08:46:53;;;;;;;53.80;20.37;;;2.20;99.90;;;;;;4054318;29;20204;-93
2023/01/19 08:48:54;;;;;;;53.73;19.83;;;2.30;99.90;;;;;;4054556;29;20253;-92
2023/01/19 08:50:55;;;;;;;51.07;21.07;;;2.20;99.90;;;;;;4054361;29;20201;-92
2023/01/19 08:52:59;;;;;;;58.33;22.30;;;2.30;99.90;;;;;;4054575;29;20216;-92
2023/01/19 08:55:00;;;;;;;53.13;22.83;;;2.50;99.90;;;;;;4069857;29;20177;-93
2023/01/19 08:57:01;;;;;;;56.40;20.33;;;2.60;99.90;;;;;;4069735;29;20276;-93
2023/01/19 08:59:02;;;;;;;61.60;22.10;;;2.60;99.90;;;;;;4054169;29;20244;-92
2023/01/19 09:01:03;;;;;;;58.60;20.03;;;2.60;99.90;;;;;;4069999;29;20180;-92
2023/01/19 09:03:06;;;;;;;52.47;20.07;;;2.60;99.90;;;;;;4054578;29;20217;-92
2023/01/19 09:05:07;;;;;;;51.43;19.50;;;2.70;99.90;;;;;;4054351;29;20180;-92
2023/01/19 09:07:07;;;;;;;52.17;19.47;;;2.60;99.90;;;;;;4054174;29;20223;-92
2023/01/19 09:09:08;;;;;;;53.37;21.10;;;2.60;99.90;;;;;;4069799;29;20176;-93
2023/01/19 09:11:10;;;;;;;53.17;18.53;;;2.40;99.90;;;;;;4054438;29;20571;-91
2023/01/19 09:13:12;;;;;;;106.30;44.27;;;2.60;99.90;;;;;;4054405;29;20249;-93
2023/01/19 09:15:13;;;;;;;52.77;19.10;;;2.80;99.90;;;;;;4054225;29;20302;-92
2023/01/19 09:17:14;;;;;;;48.87;18.33;;;2.90;99.90;;;;;;4053822;29;20192;-94
2023/01/19 09:19:14;;;;;;;53.93;21.70;;;3.00;99.90;;;;;;4068990;29;20180;-92
2023/01/19 09:21:15;;;;;;;49.73;19.00;;;2.90;99.90;;;;;;4054021;29;20181;-93
2023/01/19 09:23:18;;;;;;;51.17;19.27;;;2.90;99.90;;;;;;4054054;29;20181;-92
2023/01/19 09:25:19;;;;;;;48.03;18.50;;;3.00;99.90;;;;;;4069708;29;20168;-93
2023/01/19 09:27:20;;;;;;;138.97;56.30;;;2.80;99.90;;;;;;4054046;29;20223;-93
2023/01/19 09:29:21;;;;;;;48.73;18.37;;;2.80;99.90;;;;;;4054034;29;20172;-91
2023/01/19 09:31:22;;;;;;;69.97;30.77;;;2.80;99.90;;;;;;4053839;29;20227;-91
2023/01/19 09:33:25;;;;;;;51.60;17.93;;;2.90;99.90;;;;;;4069698;29;20684;-93
2023/01/19 09:35:25;;;;;;;42.50;17.43;;;2.70;99.90;;;;;;4054023;29;20181;-93
2023/01/19 09:37:27;;;;;;;48.27;18.47;;;2.80;99.90;;;;;;4053844;29;20201;-93
2023/01/19 09:39:28;;;;;;;51.80;21.73;;;2.80;99.90;;;;;;4054072;29;20277;-93
2023/01/19 09:41:32;;;;;;;51.67;21.17;;;2.80;99.90;;;;;;4069353;29;20211;-92
2023/01/19 09:43:44;;;;;;;45.83;18.83;;;2.70;99.90;;;;;;4053705;29;20634;-92
2023/01/19 09:45:55;;;;;;;47.93;17.23;;;2.80;99.90;;;;;;4053696;29;20272;-92
2023/01/19 09:47:57;;;;;;;44.20;17.40;;;3.10;99.90;;;;;;4053550;29;20228;-92
2023/01/19 09:50:03;;;;;;;49.73;18.37;;;3.20;99.90;;;;;;4053693;29;20551;-92
2023/01/19 09:52:09;;;;;;;41.77;17.93;;;3.30;99.90;;;;;;4053681;29;20220;-91
2023/01/19 09:54:14;;;;;;;49.00;18.43;;;3.10;99.90;;;;;;4053823;29;20165;-93
2023/01/19 09:56:18;;;;;;;52.97;23.47;;;3.30;99.90;;;;;;4053449;29;20188;-92
2023/01/19 09:58:19;;;;;;;47.07;19.03;;;3.20;99.90;;;;;;4053538;29;20192;-91
2023/01/19 10:00:23;;;;;;;51.20;18.87;;;3.30;99.90;;;;;;4053488;29;20663;-92
2023/01/19 10:02:40;;;;;;;56.43;18.87;;;3.20;99.90;;;;;;4053659;29;20185;-92
2023/01/19 10:04:53;;;;;;;50.23;19.70;;;3.20;99.90;;;;;;4068896;29;20164;-94
2023/01/19 10:07:26;;;;;;;44.37;18.40;;;3.30;99.90;;;;;;4068979;29;20538;-93
2023/01/19 10:09:52;;;;;;;43.00;18.80;;;3.20;99.90;;;;;;4069039;29;20177;-92
2023/01/19 10:12:09;;;;;;;45.93;17.03;;;3.20;99.90;;;;;;4053266;29;20220;-93
2023/01/19 10:14:24;;;;;;;37.17;16.40;;;3.00;99.90;;;;;;4053202;29;20172;-91
2023/01/19 10:16:33;;;;;;;46.93;18.40;;;3.10;99.90;;;;;;4053141;29;20272;-93
2023/01/19 10:18:46;;;;;;;47.00;17.60;;;3.10;99.90;;;;;;4053003;29;20541;-92
2023/01/19 10:20:52;;;;;;;60.80;26.03;;;3.20;99.90;;;;;;4053376;29;20192;-94
2023/01/19 10:22:55;;;;;;;46.83;18.10;;;3.20;99.90;;;;;;4053456;29;20184;-92
2023/01/19 10:25:00;;;;;;;42.07;17.00;;;3.20;99.90;;;;;;4053219;29;20701;-92
2023/01/19 10:27:02;;;;;;;41.80;16.90;;;3.20;99.90;;;;;;4053072;29;20201;-93
2023/01/19 10:29:10;;;;;;;42.63;16.70;;;3.20;99.90;;;;;;4053269;29;20216;-93
2023/01/19 10:31:12;;;;;;;39.50;16.40;;;3.20;99.90;;;;;;4067977;29;20218;-93
2023/01/19 10:33:14;;;;;;;49.53;21.30;;;3.30;99.90;;;;;;4053290;29;20180;-92
2023/01/19 10:35:22;;;;;;;41.07;18.23;;;3.40;99.90;;;;;;4053090;29;20193;-92
2023/01/19 10:37:43;;;;;;;37.80;16.77;;;3.40;99.90;;;;;;4053086;29;20271;-93
2023/01/19 10:39:54;;;;;;;41.97;16.67;;;3.30;99.90;;;;;;4053056;29;20646;-94
2023/01/19 10:42:02;;;;;;;39.73;15.73;;;3.40;99.90;;;;;;4053016;29;20547;-93
2023/01/19 10:44:04;;;;;;;41.50;16.47;;;3.30;99.90;;;;;;4068530;29;20211;-92
2023/01/19 10:46:13;;;;;;;37.40;15.77;;;3.10;99.90;;;;;;4053186;29;20173;-91
2023/01/19 10:48:13;;;;;;;49.50;21.87;;;3.00;99.90;;;;;;4053060;29;20220;-92
2023/01/19 10:50:32;;;;;;;38.73;16.03;;;3.20;99.90;;;;;;4052736;29;20180;-93
2023/01/19 10:52:38;;;;;;;39.50;15.70;;;3.10;99.90;;;;;;4052932;29;20184;-92
2023/01/19 10:54:42;;;;;;;46.33;16.87;;;3.10;99.90;;;;;;4068466;29;20172;-91
2023/01/19 10:56:53;;;;;;;42.93;16.30;;;3.20;99.90;;;;;;4052632;29;20188;-93
2023/01/19 10:58:54;;;;;;;42.07;15.83;;;3.40;99.90;;;;;;4052692;29;20177;-93
2023/01/19 11:00:54;;;;;;;40.13;16.10;;;3.50;99.90;;;;;;4068334;29;20829;-92
2023/01/19 11:02:55;;;;;;;42.17;14.07;;;3.70;99.90;;;;;;4052523;29;20221;-92
2023/01/19 11:04:59;;;;;;;45.07;17.57;;;4.00;99.90;;;;;;4052704;29;20213;-92
2023/01/19 11:07:18;;;;;;;102.57;47.87;;;3.70;99.90;;;;;;4052497;29;20689;-92
2023/01/19 11:09:20;;;;;;;39.93;15.93;;;3.50;99.90;;;;;;4052535;29;20221;-92
2023/01/19 11:11:23;;;;;;;42.53;17.33;;;3.70;99.90;;;;;;4052853;29;20216;-92
2023/01/19 11:13:24;;;;;;;54.50;25.13;;;3.80;99.90;;;;;;4052874;29;20183;-92
2023/01/19 11:15:52;;;;;;;74.17;40.33;;;3.60;99.90;;;;;;4052661;29;20185;-91
2023/01/19 11:17:54;;;;;;;35.80;15.90;;;3.50;99.90;;;;;;4052513;29;20276;-92
2023/01/19 11:20:00;;;;;;;37.00;15.17;;;3.50;99.90;;;;;;4052604;29;20180;-91
2023/01/19 11:22:14;;;;;;;37.43;15.43;;;3.50;99.90;;;;;;4052686;29;20185;-92
2023/01/19 11:24:16;;;;;;;39.23;16.93;;;3.60;99.90;;;;;;4052831;29;20187;-92
2023/01/19 11:26:30;;;;;;;40.67;17.03;;;3.60;99.90;;;;;;4052711;29;20213;-92
2023/01/19 11:28:36;;;;;;;35.57;14.87;;;3.60;99.90;;;;;;4052936;29;20181;-91
2023/01/19 11:30:52;;;;;;;41.70;15.93;;;3.50;99.90;;;;;;4068123;29;20196;-93
2023/01/19 11:32:55;;;;;;;41.00;16.23;;;3.60;99.90;;;;;;4052752;29;20216;-93
2023/01/19 11:34:55;;;;;;;43.77;16.27;;;3.70;99.90;;;;;;4068337;29;20184;-93
2023/01/19 11:37:03;;;;;;;39.63;15.53;;;3.60;99.90;;;;;;4052411;29;20232;-93
2023/01/19 11:39:26;;;;;;;41.70;18.07;;;3.60;99.90;;;;;;4052530;29;20169;-93
2023/01/19 11:41:29;;;;;;;38.63;15.30;;;3.70;99.90;;;;;;4052408;29;20197;-92
2023/01/19 11:43:29;;;;;;;69.40;33.40;;;3.70;99.90;;;;;;4070812;29;20215;-92
2023/01/19 11:45:33;;;;;;;31.80;15.17;;;3.90;99.90;;;;;;4055408;29;20200;-93
2023/01/19 11:47:43;;;;;;;32.63;15.40;;;3.90;99.90;;;;;;4055307;29;20208;-92
2023/01/19 11:49:51;;;;;;;38.33;15.47;;;3.80;99.90;;;;;;4055448;29;20669;-92
2023/01/19 11:51:57;;;;;;;31.70;15.13;;;3.90;99.90;;;;;;4055384;29;20222;-93
2023/01/19 11:54:11;;;;;;;40.40;17.53;;;3.80;99.90;;;;;;4070761;29;20676;-93
2023/01/19 11:56:14;;;;;;;40.77;16.50;;;3.90;99.90;;;;;;4055302;29;20176;-92
2023/01/19 11:58:17;;;;;;;41.93;15.47;;;4.00;99.90;;;;;;4070812;29;20352;-92
2023/01/19 12:00:41;;;;;;;34.23;14.90;;;4.00;99.90;;;;;;4055433;29;20185;-90
2023/01/19 12:02:45;;;;;;;35.70;15.80;;;4.00;99.90;;;;;;4070824;29;20176;-91
2023/01/19 12:04:48;;;;;;;35.77;15.27;;;4.00;99.90;;;;;;4055157;29;20169;-92
2023/01/19 12:06:51;;;;;;;39.60;17.60;;;4.10;99.90;;;;;;4055355;29;20197;-92
2023/01/19 12:09:00;;;;;;;39.17;15.07;;;3.70;99.90;;;;;;4054872;29;20185;-93
2023/01/19 12:11:03;;;;;;;38.77;15.30;;;3.70;99.90;;;;;;4055016;29;20216;-94
2023/01/19 12:13:03;;;;;;;36.00;15.00;;;3.80;99.90;;;;;;4055232;29;20648;-91
2023/01/19 12:15:17;;;;;;;31.20;15.17;;;4.00;99.90;;;;;;4070995;29;20176;-91
2023/01/19 12:17:39;;;;;;;42.63;15.77;;;3.90;99.90;;;;;;4070743;29;20236;-93
2023/01/19 12:19:45;;;;;;;38.50;15.97;;;4.10;99.90;;;;;;4055153;29;20181;-92
2023/01/19 12:21:49;;;;;;;30.47;11.90;;;4.20;99.90;;;;;;4054900;29;20173;-91
2023/01/19 12:24:17;;;;;;;38.23;15.60;;;4.00;99.90;;;;;;4055047;29;20189;-93
2023/01/19 12:26:26;;;;;;;35.73;15.13;;;3.90;99.90;;;;;;4054893;29;20173;-92